Time;durP1;ratioP1;P1;durP2;ratioP2;P2;SDS_P1;SDS_P2;PMS_P1;PMS_P2;Temp;Humidity;BMP_temperature;BMP_pressure;BME280_temperature;BME280_humidity;BME280_pressure;Samples;Min_cycle;Max_cycle;Signal;HPM_P1;HPM_P2
2021/09/17 00:01:55;;;;;;;0.30;0.30;;;;;;;7.61;74.01;100019.78;5058351;28;20055;-70
2021/09/17 00:04:21;;;;;;;0.30;0.30;;;;;;;7.53;75.33;100011.44;5057974;28;20139;-71
2021/09/17 00:06:50;;;;;;;0.30;0.30;;;;;;;7.49;74.86;100009.03;5041336;28;20048;-72
2021/09/17 00:09:15;;;;;;;0.30;0.30;;;;;;;7.56;75.11;100019.28;5058042;28;20403;-72
2021/09/17 00:11:41;;;;;;;0.30;0.30;;;;;;;7.62;74.28;100013.41;5057968;28;20471;-70
2021/09/17 00:14:07;;;;;;;0.30;0.30;;;;;;;7.61;74.16;100014.41;5058013;28;20047;-71
2021/09/17 00:16:33;;;;;;;0.30;0.30;;;;;;;7.58;75.01;100011.97;5074650;28;20504;-72
2021/09/17 00:18:59;;;;;;;0.30;0.30;;;;;;;7.63;75.02;100015.13;5074436;28;20109;-69
2021/09/17 00:21:25;;;;;;;0.30;0.30;;;;;;;7.46;75.51;100020.03;5074418;28;20418;-71
2021/09/17 00:23:50;;;;;;;0.30;0.30;;;;;;;7.41;75.91;100016.84;5057719;28;20063;-72
2021/09/17 00:26:16;;;;;;;0.30;0.30;;;;;;;7.37;75.88;100020.75;5041118;28;20059;-72
2021/09/17 00:28:42;;;;;;;0.30;0.30;;;;;;;7.42;76.35;100018.56;5061398;28;20052;-74
2021/09/17 00:31:08;;;;;;;0.30;0.30;;;;;;;7.45;75.72;100007.53;5057005;28;20396;-72
2021/09/17 00:33:34;;;;;;;0.30;0.30;;;;;;;7.44;76.12;100005.84;5040593;28;20056;-69
2021/09/17 00:35:59;;;;;;;0.30;0.30;;;;;;;7.43;76.32;100004.13;5040663;28;20043;-70
2021/09/17 00:38:25;;;;;;;0.30;0.30;;;;;;;7.46;76.66;100003.91;5092593;28;20539;-71
2021/09/17 00:40:51;;;;;;;0.30;0.30;;;;;;;7.46;76.66;100009.28;5091122;28;20155;-71
2021/09/17 00:43:17;;;;;;;0.30;0.30;;;;;;;7.45;75.91;100007.53;5074693;28;20137;-65
2021/09/17 00:45:44;;;;;;;0.30;0.30;;;;;;;7.47;75.96;100005.59;5092266;28;20147;-70
2021/09/17 00:48:10;;;;;;;0.30;0.30;;;;;;;7.46;75.73;100011.97;5074007;28;20048;-70
2021/09/17 00:50:36;;;;;;;0.30;0.30;;;;;;;7.37;75.96;100004.63;5090398;28;20135;-68
2021/09/17 00:53:02;;;;;;;0.30;0.30;;;;;;;7.38;74.19;100006.31;5091856;28;20163;-69
2021/09/17 00:55:28;;;;;;;0.30;0.30;;;;;;;7.47;74.77;100005.59;5073682;28;20062;-69
2021/09/17 00:57:56;;;;;;;0.30;0.30;;;;;;;7.47;73.08;100010.97;5091059;28;20125;-67
2021/09/17 01:00:22;;;;;;;0.30;0.30;;;;;;;7.43;74.00;100014.91;5070505;28;20075;-69
2021/09/17 01:02:48;;;;;;;0.30;0.30;;;;;;;7.29;73.33;100001.69;5071053;28;20076;-72
2021/09/17 01:05:14;;;;;;;0.30;0.30;;;;;;;7.37;72.67;100011.84;5069961;28;20060;-69
2021/09/17 01:07:42;;;;;;;0.30;0.30;;;;;;;7.37;72.54;100007.31;5070481;28;20059;-74
2021/09/17 01:10:08;;;;;;;0.30;0.30;;;;;;;7.36;72.41;100002.91;5089769;28;20094;-71
2021/09/17 01:12:34;;;;;;;0.30;0.30;;;;;;;7.41;73.11;100006.06;5091638;28;20052;-68
2021/09/17 01:15:00;;;;;;;0.30;0.30;;;;;;;7.41;73.92;100006.06;5073061;28;20146;-67
2021/09/17 01:17:34;;;;;;;0.30;0.30;;;;;;;7.44;71.95;100005.00;5091287;28;20110;-67
2021/09/17 01:20:01;;;;;;;0.30;0.30;;;;;;;7.44;71.46;99999.59;5072938;28;20117;-67
2021/09/17 01:22:27;;;;;;;0.30;0.30;;;;;;;7.41;71.83;99995.31;5073200;28;20052;-69
2021/09/17 01:24:53;;;;;;;0.30;0.30;;;;;;;7.38;72.58;99995.56;5081166;28;20393;-69
2021/09/17 01:27:18;;;;;;;0.30;0.30;;;;;;;7.38;73.33;99995.56;5056334;28;20151;-68
2021/09/17 01:29:44;;;;;;;0.30;0.30;;;;;;;7.37;72.85;99999.22;5085374;28;20134;-71
2021/09/17 01:32:10;;;;;;;0.30;0.30;;;;;;;7.29;74.50;100001.69;5090008;28;20056;-70
2021/09/17 01:34:36;;;;;;;0.30;0.30;;;;;;;7.22;73.52;100000.47;5058249;28;20061;-70
2021/09/17 01:37:02;;;;;;;0.30;0.30;;;;;;;7.20;75.37;99997.91;5070453;28;20052;-68
2021/09/17 01:39:27;;;;;;;0.30;0.30;;;;;;;7.14;75.26;100000.22;5084521;28;20133;-70
2021/09/17 01:41:53;;;;;;;0.30;0.30;;;;;;;7.17;74.97;99999.97;5090950;28;20091;-69
2021/09/17 01:44:19;;;;;;;0.30;0.30;;;;;;;7.20;74.93;99997.91;5072416;28;20120;-69
2021/09/17 01:46:44;;;;;;;0.30;0.30;;;;;;;7.18;75.28;99996.31;5072099;28;20071;-69
2021/09/17 01:49:10;;;;;;;0.30;0.30;;;;;;;7.18;75.05;99997.16;5072358;28;20048;-69
2021/09/17 01:51:37;;;;;;;0.30;0.30;;;;;;;7.18;75.66;99996.31;5091016;28;20121;-67
2021/09/17 01:54:04;;;;;;;0.30;0.30;;;;;;;7.20;75.10;99992.53;5090580;28;20087;-69
2021/09/17 01:56:31;;;;;;;0.30;0.30;;;;;;;7.21;74.18;99993.38;5022628;28;20062;-68
2021/09/17 01:58:57;;;;;;;0.30;0.30;;;;;;;7.20;73.83;99991.63;5078128;28;20411;-71
2021/09/17 02:01:22;;;;;;;0.30;0.30;;;;;;;7.25;73.46;99989.47;5088668;28;20055;-69
2021/09/17 02:03:48;;;;;;;0.30;0.30;;;;;;;7.22;73.60;99984.31;5071952;28;20539;-70
2021/09/17 02:06:24;;;;;;;0.30;0.30;;;;;;;7.20;73.08;99989.84;5090817;28;20040;-68
2021/09/17 02:08:50;;;;;;;0.30;0.30;;;;;;;7.23;73.29;99991.41;5071881;28;20507;-69
2021/09/17 02:11:16;;;;;;;0.30;0.30;;;;;;;7.25;74.40;99992.16;5072676;28;20419;-67
2021/09/17 02:13:42;;;;;;;0.30;0.30;;;;;;;7.20;74.52;99992.53;5039005;28;20422;-71
2021/09/17 02:16:08;;;;;;;0.30;0.30;;;;;;;7.08;75.00;99987.25;5071889;28;20599;-69
2021/09/17 02:18:34;;;;;;;0.30;0.30;;;;;;;7.06;75.69;99989.19;5082777;28;20143;-67
2021/09/17 02:20:59;;;;;;;0.30;0.30;;;;;;;7.07;75.30;99982.84;5069024;28;20127;-69
2021/09/17 02:23:25;;;;;;;0.30;0.30;;;;;;;7.02;75.80;99993.97;5073738;28;20070;-72
2021/09/17 02:25:51;;;;;;;0.30;0.30;;;;;;;6.96;75.62;99987.22;5090743;28;20117;-69
2021/09/17 02:28:17;;;;;;;0.30;0.30;;;;;;;6.96;76.15;99992.59;5090151;28;20052;-67
2021/09/17 02:30:43;;;;;;;0.30;0.30;;;;;;;6.92;76.25;99983.06;5072150;28;20411;-66
2021/09/17 02:33:08;;;;;;;0.30;0.30;;;;;;;6.96;76.13;99992.59;5072125;28;20059;-70
2021/09/17 02:35:34;;;;;;;0.30;0.30;;;;;;;6.91;75.82;99991.25;5090392;28;20054;-72
2021/09/17 02:38:00;;;;;;;0.30;0.30;;;;;;;6.92;75.88;99998.34;5092666;28;20060;-69
2021/09/17 02:40:26;;;;;;;0.30;0.30;;;;;;;6.95;75.28;99998.97;5090998;28;20144;-67
2021/09/17 02:42:51;;;;;;;0.30;0.30;;;;;;;6.95;74.74;99998.97;5091163;28;20064;-67
2021/09/17 02:45:17;;;;;;;0.30;0.30;;;;;;;6.95;74.61;100008.88;5090115;28;20179;-69
2021/09/17 02:47:43;;;;;;;0.30;0.30;;;;;;;6.93;74.13;99995.53;5089426;28;20468;-67
2021/09/17 02:50:10;;;;;;;0.30;0.30;;;;;;;6.89;73.71;99999.44;5088895;28;20492;-69
2021/09/17 02:52:35;;;;;;;0.30;0.30;;;;;;;6.86;74.36;99998.81;5090295;28;20139;-69
2021/09/17 02:55:02;;;;;;;0.30;0.30;;;;;;;6.90;73.86;100005.66;5071790;28;20059;-69
2021/09/17 02:57:27;;;;;;;0.30;0.30;;;;;;;6.91;73.82;100012.75;5072893;28;20059;-71
2021/09/17 02:59:53;;;;;;;0.30;0.30;;;;;;;6.84;74.72;100007.00;5075321;28;20064;-69
2021/09/17 03:02:19;;;;;;;0.30;0.30;;;;;;;6.82;74.28;100005.41;5074065;28;20044;-69
2021/09/17 03:04:45;;;;;;;0.30;0.30;;;;;;;6.78;74.47;100007.47;5088740;28;20063;-69
2021/09/17 03:07:11;;;;;;;0.30;0.30;;;;;;;6.84;74.40;100000.75;5059250;28;20503;-70
2021/09/17 03:09:37;;;;;;;0.30;0.30;;;;;;;6.87;74.55;100012.13;5093629;28;20056;-70
2021/09/17 03:12:03;;;;;;;0.30;0.30;;;;;;;6.86;74.49;100002.34;5075875;28;20163;-69
2021/09/17 03:14:30;;;;;;;0.30;0.30;;;;;;;6.85;74.38;100003.34;5085963;28;20548;-68
2021/09/17 03:16:55;;;;;;;0.30;0.30;;;;;;;6.85;74.06;100000.66;5092345;28;20083;-68
2021/09/17 03:19:21;;;;;;;0.30;0.30;;;;;;;6.85;74.43;100003.34;5090921;28;20463;-69
2021/09/17 03:21:47;;;;;;;0.30;0.30;;;;;;;6.84;74.89;100011.50;5075474;28;20541;-68
2021/09/17 03:24:13;;;;;;;0.30;0.30;;;;;;;6.85;74.49;100003.34;5091894;28;20052;-69
2021/09/17 03:26:39;;;;;;;0.30;0.30;;;;;;;6.80;74.83;100008.22;5092223;28;20419;-70
2021/09/17 03:29:05;;;;;;;0.30;0.30;;;;;;;6.79;75.78;100009.19;5093711;28;20139;-70
2021/09/17 03:31:31;;;;;;;0.30;0.30;;;;;;;6.71;75.77;100011.59;5042421;28;20164;-70
2021/09/17 03:33:58;;;;;;;0.30;0.30;;;;;;;6.77;75.18;100008.47;5091838;28;20163;-68
2021/09/17 03:36:27;;;;;;;0.30;0.30;;;;;;;6.75;74.97;100011.25;5093384;28;20060;-72
2021/09/17 03:38:55;;;;;;;0.30;0.30;;;;;;;6.82;74.88;100008.94;5083317;28;20048;-71
2021/09/17 03:41:20;;;;;;;0.40;0.40;;;;;;;6.85;75.04;100014.09;5055579;28;20065;-68
2021/09/17 03:43:46;;;;;;;0.30;0.30;;;;;;;6.86;75.05;100005.03;5081090;28;20536;-70
2021/09/17 03:46:12;;;;;;;0.30;0.30;;;;;;;6.87;75.47;100001.38;5075402;28;20052;-73
2021/09/17 03:48:38;;;;;;;0.30;0.30;;;;;;;6.97;74.86;100007.75;5058431;28;20055;-70
2021/09/17 03:51:04;;;;;;;0.30;0.30;;;;;;;7.00;74.72;100003.97;5093447;28;20044;-69
2021/09/17 03:53:29;;;;;;;0.30;0.30;;;;;;;7.01;74.84;100003.00;5091238;28;20044;-69
2021/09/17 03:55:55;;;;;;;0.40;0.40;;;;;;;7.08;74.68;100006.91;5075065;28;20059;-69
2021/09/17 03:58:21;;;;;;;0.30;0.30;;;;;;;7.09;74.61;100005.06;5091792;28;20407;-67
2021/09/17 04:00:47;;;;;;;0.40;0.40;;;;;;;7.11;75.41;100003.13;5091840;28;20060;-70
2021/09/17 04:03:12;;;;;;;0.30;0.30;;;;;;;7.09;74.91;100010.44;5084128;28;20162;-68
2021/09/17 04:05:38;;;;;;;0.30;0.30;;;;;;;7.18;74.06;100017.81;5075021;28;20058;-70
2021/09/17 04:08:04;;;;;;;0.30;0.30;;;;;;;7.13;73.82;100006.53;5092314;28;20574;-70
2021/09/17 04:10:30;;;;;;;0.40;0.40;;;;;;;7.08;74.20;100009.59;5096440;28;20496;-70
2021/09/17 04:12:56;;;;;;;0.30;0.30;;;;;;;7.09;74.81;100015.84;5076869;28;20483;-68
2021/09/17 04:15:21;;;;;;;0.40;0.40;;;;;;;7.16;74.49;100017.06;5078102;28;20193;-67
2021/09/17 04:17:47;;;;;;;0.30;0.30;;;;;;;7.19;73.84;100017.69;5061236;28;20388;-67
2021/09/17 04:20:14;;;;;;;0.40;0.40;;;;;;;7.22;73.45;100011.22;5096248;28;20091;-71
2021/09/17 04:22:40;;;;;;;0.40;0.40;;;;;;;7.30;73.22;100024.91;5046602;28;20044;-71
2021/09/17 04:25:08;;;;;;;0.40;0.40;;;;;;;7.35;70.99;100027.22;5079529;28;20071;-70
2021/09/17 04:30:27;;;;;;;0.40;0.40;;;;;;;7.40;71.73;100025.88;5093228;28;20094;-67
2021/09/17 04:32:53;;;;;;;0.40;0.40;;;;;;;7.43;70.51;100024.81;5093930;28;20052;-76
2021/09/17 04:35:19;;;;;;;0.30;0.30;;;;;;;7.40;71.09;100031.28;5078346;28;20078;-72
2021/09/17 04:37:47;;;;;;;0.30;0.30;;;;;;;7.37;71.09;100031.50;5060910;28;20056;-73
2021/09/17 04:40:16;;;;;;;0.40;0.40;;;;;;;7.41;70.49;100038.34;5082043;28;20408;-71
2021/09/17 04:42:43;;;;;;;0.40;0.40;;;;;;;7.40;69.88;100036.66;5094769;28;20071;-67
2021/09/17 04:45:09;;;;;;;0.30;0.30;;;;;;;7.45;68.37;100031.75;5093523;28;20106;-69
2021/09/17 04:47:35;;;;;;;0.40;0.40;;;;;;;7.56;68.64;100040.81;5081325;28;20077;-71
2021/09/17 04:50:03;;;;;;;0.30;0.30;;;;;;;7.61;67.63;100031.41;5092708;28;20569;-72
2021/09/17 04:52:29;;;;;;;0.40;0.40;;;;;;;7.63;65.10;100031.25;5093935;28;20066;-70
2021/09/17 04:54:58;;;;;;;0.40;0.40;;;;;;;7.71;65.02;100034.19;5059286;28;20144;-68
2021/09/17 04:57:24;;;;;;;0.40;0.40;;;;;;;7.74;64.55;100033.94;5085766;28;20059;-69
2021/09/17 04:59:50;;;;;;;0.40;0.40;;;;;;;7.92;64.16;100037.84;5054983;28;20060;-69
2021/09/17 05:02:15;;;;;;;0.40;0.40;;;;;;;7.92;63.97;100032.44;5079406;28;20080;-71
2021/09/17 05:04:41;;;;;;;0.30;0.30;;;;;;;7.81;64.49;100034.31;5069320;28;20143;-72
2021/09/17 05:07:07;;;;;;;0.40;0.40;;;;;;;7.79;64.73;100031.75;5079598;28;20056;-78
2021/09/17 05:09:33;;;;;;;0.30;0.30;;;;;;;7.75;64.89;100038.34;5053836;28;20202;-69
2021/09/17 05:11:59;;;;;;;0.40;0.40;;;;;;;7.87;62.92;100033.81;5086222;28;20048;-67
2021/09/17 05:14:24;;;;;;;0.40;0.40;;;;;;;7.88;63.68;100036.38;5053816;28;20060;-67
2021/09/17 05:16:50;;;;;;;0.40;0.40;;;;;;;7.93;63.51;100050.34;5085148;28;20123;-70
2021/09/17 05:19:23;;;;;;;0.40;0.40;;;;;;;7.97;61.93;100041.03;5083478;28;20399;-75
2021/09/17 05:21:53;;;;;;;0.40;0.40;;;;;;;7.97;62.36;100030.25;5075554;28;20051;-70
2021/09/17 05:24:20;;;;;;;0.40;0.40;;;;;;;7.91;61.83;100033.44;5085080;28;20038;-66
2021/09/17 05:26:46;;;;;;;0.35;0.35;;;;;;;7.89;61.66;100032.69;5073959;28;20044;-72
2021/09/17 05:29:12;;;;;;;0.30;0.30;;;;;;;7.93;61.61;100034.19;5061580;28;20060;-75
2021/09/17 05:31:40;;;;;;;0.30;0.30;;;;;;;7.96;61.46;100036.59;5071558;28;20087;-69
2021/09/17 05:34:06;;;;;;;0.40;0.40;;;;;;;7.79;61.42;100031.75;5081646;28;20077;-68
2021/09/17 05:36:32;;;;;;;0.32;0.32;;;;;;;7.78;61.77;100023.78;5047531;28;20060;-76
2021/09/17 05:38:57;;;;;;;0.40;0.40;;;;;;;7.73;61.59;100024.16;5074613;28;20047;-73
2021/09/17 05:41:23;;;;;;;0.38;0.38;;;;;;;7.69;61.49;100023.56;5072067;28;20052;-73
2021/09/17 05:43:51;;;;;;;0.30;0.30;;;;;;;7.74;61.89;100018.66;5076949;28;20056;-67
2021/09/17 05:46:17;;;;;;;0.40;0.40;;;;;;;7.76;62.04;100020.38;5089065;28;20048;-73
2021/09/17 05:48:43;;;;;;;0.40;0.40;;;;;;;7.76;62.61;100015.84;5077692;28;20047;-74
2021/09/17 05:51:10;;;;;;;0.40;0.40;;;;;;;7.84;62.74;100018.78;5080809;28;20050;-73
2021/09/17 05:53:36;;;;;;;0.40;0.40;;;;;;;7.79;62.34;100015.59;5020900;28;20139;-72
2021/09/17 05:56:01;;;;;;;0.40;0.40;;;;;;;7.80;61.86;100017.31;5054558;28;20048;-74
2021/09/17 05:58:31;;;;;;;0.30;0.30;;;;;;;7.86;62.22;100016.81;5065507;28;21028;-70
2021/09/17 06:00:58;;;;;;;0.40;0.40;;;;;;;7.87;61.81;100013.13;5066630;28;20051;-72
2021/09/17 06:03:24;;;;;;;0.40;0.40;;;;;;;7.86;62.19;100015.94;5074490;28;20407;-73
2021/09/17 06:05:50;;;;;;;0.40;0.40;;;;;;;7.84;62.78;100021.47;5057239;28;20135;-73
2021/09/17 06:08:16;;;;;;;0.40;0.40;;;;;;;7.80;63.35;100008.38;5073553;28;20503;-71
2021/09/17 06:10:42;;;;;;;0.30;0.30;;;;;;;7.90;63.75;100017.44;5048942;28;20048;-69
2021/09/17 06:13:08;;;;;;;0.30;0.30;;;;;;;7.96;62.91;100009.69;5072974;28;20130;-75
2021/09/17 06:15:34;;;;;;;0.30;0.30;;;;;;;7.86;63.10;100008.75;5041039;28;20079;-73
2021/09/17 06:18:00;;;;;;;0.32;0.32;;;;;;;7.87;63.58;100007.75;5062469;28;20135;-72
2021/09/17 06:20:26;;;;;;;0.40;0.40;;;;;;;7.86;62.83;100006.06;5066735;28;20429;-76
2021/09/17 06:22:55;;;;;;;0.30;0.30;;;;;;;7.84;63.35;100008.00;5081538;28;20044;-69
2021/09/17 06:25:23;;;;;;;0.40;0.40;;;;;;;7.88;63.46;100009.47;5040774;28;20066;-68
2021/09/17 06:27:49;;;;;;;0.40;0.40;;;;;;;7.95;63.70;100007.13;5055497;28;20059;-73
2021/09/17 06:30:17;;;;;;;0.30;0.30;;;;;;;7.96;63.42;100025.84;5047250;28;20499;-72
2021/09/17 06:32:45;;;;;;;0.30;0.30;;;;;;;7.91;63.64;100025.38;5042467;28;20166;-70
2021/09/17 06:35:12;;;;;;;0.30;0.30;;;;;;;7.94;63.96;100025.13;5061732;28;20052;-73
2021/09/17 06:38:05;;;;;;;0.30;0.30;;;;;;;7.88;64.32;100035.53;5081818;28;20044;-73
2021/09/17 06:40:31;;;;;;;0.30;0.30;;;;;;;7.93;64.12;100033.31;5063408;28;20105;-74
2021/09/17 06:42:57;;;;;;;0.30;0.30;;;;;;;7.91;64.22;100036.13;5081310;28;20084;-72
2021/09/17 06:45:23;;;;;;;0.30;0.30;;;;;;;7.90;62.76;100037.13;5055133;28;20051;-73
2021/09/17 06:47:54;;;;;;;0.40;0.40;;;;;;;7.88;62.11;100038.22;5053023;28;20056;-73
2021/09/17 06:50:22;;;;;;;0.40;0.40;;;;;;;7.77;62.28;100030.16;5081661;28;20083;-72
2021/09/17 06:52:49;;;;;;;0.38;0.38;;;;;;;7.80;62.39;100030.78;5072023;28;20516;-71
2021/09/17 06:55:20;;;;;;;0.30;0.30;;;;;;;7.78;62.50;100029.16;5082884;28;20044;-71
2021/09/17 06:57:51;;;;;;;0.40;0.40;;;;;;;7.75;62.82;100022.19;5083696;28;20091;-71
2021/09/17 07:00:19;;;;;;;0.45;0.40;;;;;;;7.73;63.12;100029.56;5043375;28;20053;-74
2021/09/17 07:02:44;;;;;;;0.40;0.40;;;;;;;7.78;63.16;100027.34;5078900;28;20091;-73
2021/09/17 07:05:11;;;;;;;0.40;0.40;;;;;;;7.78;63.73;100030.03;5051292;28;20077;-69
2021/09/17 07:07:37;;;;;;;0.40;0.40;;;;;;;7.84;63.60;100029.53;5079291;28;20566;-70
2021/09/17 07:10:05;;;;;;;0.40;0.40;;;;;;;7.91;63.60;100025.38;5032983;28;20163;-72
2021/09/17 07:12:31;;;;;;;0.40;0.40;;;;;;;8.02;63.01;100020.94;5084258;28;20091;-75
2021/09/17 07:14:57;;;;;;;0.40;0.40;;;;;;;8.16;63.37;100017.97;5045860;28;20072;-68
2021/09/17 07:17:23;;;;;;;0.40;0.40;;;;;;;8.27;62.96;100026.03;5040898;28;20059;-71
2021/09/17 07:19:49;;;;;;;0.38;0.38;;;;;;;8.34;62.92;100032.59;5076530;28;20049;-67
2021/09/17 07:22:15;;;;;;;0.40;0.40;;;;;;;8.36;62.41;100041.41;5077567;28;20079;-71
2021/09/17 07:24:41;;;;;;;0.30;0.30;;;;;;;8.32;62.04;100034.56;5078470;28;20138;-74
2021/09/17 07:27:07;;;;;;;0.40;0.40;;;;;;;8.44;61.99;100022.78;5063045;28;20142;-70
2021/09/17 07:29:33;;;;;;;0.40;0.40;;;;;;;8.44;61.71;100025.47;5078578;28;20059;-72
2021/09/17 07:31:59;;;;;;;0.40;0.40;;;;;;;8.47;61.53;100015.44;5077324;28;20129;-69
2021/09/17 07:34:25;;;;;;;0.40;0.40;;;;;;;8.45;61.70;100019.13;5045926;28;20162;-75
2021/09/17 07:36:51;;;;;;;0.40;0.40;;;;;;;8.45;61.21;100029.91;5083381;28;20130;-69
2021/09/17 07:39:16;;;;;;;0.30;0.30;;;;;;;8.38;60.77;100026.00;5083893;28;20087;-70
2021/09/17 07:41:42;;;;;;;0.40;0.40;;;;;;;8.37;60.67;100027.00;5067615;28;20056;-73
2021/09/17 07:44:08;;;;;;;0.40;0.40;;;;;;;8.45;60.88;100029.91;5068875;28;20140;-72
2021/09/17 07:46:34;;;;;;;0.40;0.40;;;;;;;8.54;61.10;100013.94;5081723;28;20078;-71
2021/09/17 07:49:00;;;;;;;0.40;0.40;;;;;;;8.54;60.94;100022.88;5086134;28;20463;-67
2021/09/17 07:51:26;;;;;;;0.40;0.40;;;;;;;8.57;60.20;100019.09;5084605;28;20044;-71
2021/09/17 07:53:52;;;;;;;0.40;0.40;;;;;;;8.69;59.81;100031.50;5060494;28;20091;-72
2021/09/17 07:56:18;;;;;;;0.40;0.40;;;;;;;8.73;60.21;100030.25;5038638;28;20084;-70
2021/09/17 07:58:43;;;;;;;0.30;0.30;;;;;;;8.65;60.43;100032.75;5067806;28;20543;-76
2021/09/17 08:01:09;;;;;;;0.30;0.30;;;;;;;8.71;58.44;100039.47;5054843;28;20471;-75
2021/09/17 08:03:35;;;;;;;0.38;0.38;;;;;;;8.63;58.33;100037.44;5065275;28;20060;-77
2021/09/17 08:06:01;;;;;;;0.40;0.40;;;;;;;8.63;58.79;100032.03;5056738;28;20933;-76
2021/09/17 08:08:28;;;;;;;0.30;0.30;;;;;;;8.80;59.30;100034.16;5075937;28;20056;-75
2021/09/17 08:10:55;;;;;;;0.30;0.30;;;;;;;8.81;58.36;100041.28;5077210;28;20045;-75
2021/09/17 08:13:21;;;;;;;0.40;0.40;;;;;;;8.76;57.72;100043.47;5086476;28;20052;-75
2021/09/17 08:15:47;;;;;;;0.40;0.40;;;;;;;8.73;58.01;100046.44;5052771;28;20143;-69
2021/09/17 08:18:13;;;;;;;0.40;0.40;;;;;;;8.71;58.74;100040.34;5087592;28;20081;-74
2021/09/17 08:20:48;;;;;;;0.40;0.40;;;;;;;8.63;59.53;100049.06;5059443;28;20048;-74
2021/09/17 08:23:15;;;;;;;0.40;0.40;;;;;;;8.69;58.59;100042.28;5090129;28;20047;-72
2021/09/17 08:25:42;;;;;;;0.63;0.40;;;;;;;8.63;58.87;100040.13;5055015;28;20093;-75
2021/09/17 08:31:14;;;;;;;0.30;0.30;;;;;;;8.60;58.16;100048.47;5090728;28;20530;-74
2021/09/17 08:33:56;;;;;;;0.30;0.30;;;;;;;8.44;56.77;100044.34;5063249;28;20055;-75
2021/09/17 08:36:43;;;;;;;0.30;0.30;;;;;;;8.43;59.53;100042.63;5044910;28;20056;-74
2021/09/17 08:45:19;;;;;;;0.40;0.40;;;;;;;8.43;59.00;100041.78;5089568;28;20170;-74
2021/09/17 08:47:48;;;;;;;0.40;0.40;;;;;;;8.61;58.04;100034.00;5054223;28;20048;-73
2021/09/17 08:50:16;;;;;;;0.30;0.30;;;;;;;8.56;57.54;100028.16;5071552;28;20369;-73
2021/09/17 08:52:42;;;;;;;0.32;0.32;;;;;;;8.58;58.33;100039.66;5071625;28;20060;-73
2021/09/17 08:55:09;;;;;;;0.40;0.40;;;;;;;8.67;57.89;100033.50;5074147;28;20105;-72
2021/09/17 08:57:35;;;;;;;0.30;0.30;;;;;;;8.65;56.05;100024.66;5074853;28;20102;-73
2021/09/17 09:00:04;;;;;;;0.30;0.30;;;;;;;8.66;57.23;100029.06;5062695;28;20059;-74
2021/09/17 09:02:36;;;;;;;0.30;0.30;;;;;;;8.59;57.49;100025.19;5091075;28;20052;-77
2021/09/17 09:05:07;;;;;;;0.30;0.30;;;;;;;8.60;56.69;100026.91;5056346;28;20098;-73
2021/09/17 09:07:38;;;;;;;0.30;0.30;;;;;;;8.66;56.68;100026.38;5041704;28;20063;-73
2021/09/17 09:10:07;;;;;;;0.30;0.30;;;;;;;8.74;56.74;100029.28;5075250;28;20586;-73
2021/09/17 09:28:21;;;;;;;0.38;0.38;;;;;;;8.65;57.48;100019.28;5113197;27;20157;-73
2021/09/17 09:30:48;;;;;;;0.45;0.45;;;;;;;8.63;56.75;100021.28;5032102;28;20150;-76
2021/09/17 09:33:41;;;;;;;0.40;0.40;;;;;;;8.77;56.83;100023.63;5016061;28;20472;-73
2021/09/17 09:36:14;;;;;;;0.45;0.45;;;;;;;8.93;55.29;100024.03;5033798;28;20127;-74
2021/09/17 09:38:44;;;;;;;;;;;;;;;9.07;55.31;100022.00;5038176;28;20087;-74
2021/09/17 09:41:21;;;;;;;0.40;0.40;;;;;;;9.18;55.05;100027.31;5032481;28;19936;-75
2021/09/17 09:44:14;;;;;;;0.40;0.40;;;;;;;9.23;55.27;100030.47;5043658;28;20099;-72
2021/09/17 09:46:44;;;;;;;0.40;0.40;;;;;;;9.19;55.21;100018.22;5067812;28;20052;-71
2021/09/17 09:49:25;;;;;;;0.30;0.30;;;;;;;9.17;54.17;100022.88;5088280;28;20117;-73
2021/09/17 09:51:54;;;;;;;0.35;0.35;;;;;;;9.17;54.58;100021.03;5076704;28;22469;-68
2021/09/17 09:54:23;;;;;;;0.40;0.40;;;;;;;9.19;54.98;100031.72;5086744;28;20052;-73
2021/09/17 09:56:50;;;;;;;0.40;0.40;;;;;;;9.21;54.76;100035.13;5088152;28;20055;-72
2021/09/17 09:59:19;;;;;;;0.30;0.30;;;;;;;9.30;54.96;100026.25;5092649;28;20063;-72
2021/09/17 10:01:46;;;;;;;0.40;0.40;;;;;;;9.50;54.48;100034.44;5091351;28;20043;-73
2021/09/17 10:04:13;;;;;;;0.40;0.40;;;;;;;9.57;53.52;100035.59;5056688;28;20142;-72
2021/09/17 10:06:40;;;;;;;0.40;0.40;;;;;;;9.68;53.57;100038.19;5052128;28;20051;-73
2021/09/17 10:09:09;;;;;;;0.40;0.40;;;;;;;9.66;53.40;100032.09;5059680;28;20039;-72
2021/09/17 10:11:39;;;;;;;0.40;0.40;;;;;;;9.70;51.05;100033.53;5067330;28;20081;-72
2021/09/17 10:14:08;;;;;;;0.40;0.40;;;;;;;9.69;52.82;100031.84;5089681;28;20062;-76
2021/09/17 10:16:35;;;;;;;0.40;0.40;;;;;;;9.87;51.82;100040.09;5056889;28;20393;-73
2021/09/17 10:19:03;;;;;;;0.38;0.38;;;;;;;9.83;51.95;100044.94;5079742;28;20050;-72
2021/09/17 10:21:45;;;;;;;0.30;0.30;;;;;;;9.79;48.71;100042.66;5073574;28;20101;-71
2021/09/17 12:21:41;;;;;;;0.30;0.30;;;;;;;9.12;51.07;100044.03;5090340;28;20052;-72
2021/09/17 12:24:23;;;;;;;0.35;0.35;;;;;;;9.14;51.37;100047.44;5075508;28;20158;-72
2021/09/17 12:26:57;;;;;;;0.30;0.30;;;;;;;9.14;51.89;100050.13;5032047;28;20052;-72
2021/09/17 13:04:27;;;;;;;0.40;0.40;;;;;;;9.20;55.01;100048.75;5081295;28;20078;-71
2021/09/17 13:06:53;;;;;;;0.40;0.40;;;;;;;9.24;54.69;100042.94;5054353;28;20567;-73
2021/09/17 13:09:20;;;;;;;0.40;0.40;;;;;;;9.22;54.14;100050.34;5039977;28;20504;-72
2021/09/17 13:11:46;;;;;;;0.30;0.30;;;;;;;9.16;54.44;100059.81;5058405;28;20058;-72
2021/09/17 13:21:25;;;;;;;0.30;0.30;;;;;;;8.98;54.14;100068.63;5077540;28;20111;-73
2021/09/17 13:23:51;;;;;;;0.40;0.40;;;;;;;9.11;53.10;100066.59;5066235;28;20060;-72
2021/09/17 13:26:21;;;;;;;0.30;0.30;;;;;;;9.11;53.38;100064.75;5071984;28;20143;-72
2021/09/17 13:28:48;;;;;;;0.30;0.30;;;;;;;9.18;54.00;100063.25;5033117;28;20470;-73
2021/09/17 14:37:40;;;;;;;0.30;0.30;;;;;;;8.45;55.18;100082.94;5081101;28;20051;-73
2021/09/17 14:40:06;;;;;;;0.30;0.30;;;;;;;8.45;55.29;100086.50;5034769;28;20045;-71
2021/09/17 14:42:32;;;;;;;0.30;0.30;;;;;;;8.45;55.72;100089.19;5054941;28;20388;-75
2021/09/17 14:44:58;;;;;;;0.40;0.40;;;;;;;8.44;56.14;100087.44;5022003;28;20150;-73
2021/09/17 14:47:24;;;;;;;0.30;0.30;;;;;;;8.41;56.01;100082.34;5058235;28;20292;-69
2021/09/17 14:49:50;;;;;;;0.30;0.30;;;;;;;8.39;55.93;100086.97;5051593;28;20633;-71
2021/09/17 14:52:15;;;;;;;0.30;0.30;;;;;;;8.37;56.08;100088.97;5045965;28;20056;-71
2021/09/17 14:54:41;;;;;;;0.30;0.30;;;;;;;8.24;56.78;100084.69;5046527;28;20091;-71
2021/09/17 14:57:07;;;;;;;0.32;0.32;;;;;;;8.24;56.99;100090.91;5051515;28;20159;-71
2021/09/17 14:59:33;;;;;;;0.57;0.38;;;;;;;8.19;56.98;100076.94;5062034;28;20079;-75
2021/09/17 15:02:00;;;;;;;0.30;0.30;;;;;;;8.15;57.62;100081.75;5061513;28;20047;-73
2021/09/17 15:04:25;;;;;;;0.30;0.30;;;;;;;8.07;58.07;100084.19;5052052;28;20059;-70
2021/09/17 15:06:51;;;;;;;0.30;0.30;;;;;;;8.01;58.47;100083.81;5065333;28;20213;-69
2021/09/17 15:09:17;;;;;;;0.30;0.30;;;;;;;7.95;58.58;100090.59;5065483;28;20435;-72
2021/09/17 15:11:43;;;;;;;0.30;0.30;;;;;;;7.90;58.02;100087.41;5032583;28;20139;-71
2021/09/17 15:14:09;;;;;;;0.30;0.30;;;;;;;7.83;59.19;100084.34;5027228;28;20052;-73
2021/09/17 15:16:35;;;;;;;0.30;0.30;;;;;;;7.73;58.88;100097.69;5040447;28;20037;-71
2021/09/17 15:19:01;;;;;;;0.30;0.30;;;;;;;7.58;59.44;100088.13;5052098;28;20462;-74
2021/09/17 15:21:27;;;;;;;0.30;0.30;;;;;;;7.54;59.44;100091.22;5061094;28;20048;-74
2021/09/17 15:23:55;;;;;;;0.30;0.30;;;;;;;7.46;60.65;100095.34;5035160;28;20538;-78
2021/09/17 15:26:24;;;;;;;0.30;0.30;;;;;;;7.39;61.49;100101.34;5062010;28;20060;-66
2021/09/17 15:28:50;;;;;;;0.40;0.40;;;;;;;7.36;60.86;100105.13;5071780;28;20044;-69
2021/09/17 15:31:16;;;;;;;0.40;0.40;;;;;;;7.27;61.63;100105.81;5061532;28;20159;-71
2021/09/17 15:33:43;;;;;;;0.40;0.40;;;;;;;7.18;62.46;100102.00;5029662;28;20049;-72
2021/09/17 15:36:10;;;;;;;0.30;0.30;;;;;;;7.16;62.08;100108.47;5081325;28;20060;-68
2021/09/17 15:38:37;;;;;;;0.30;0.30;;;;;;;7.05;62.18;100111.13;5036376;28;20050;-71
2021/09/17 15:41:03;;;;;;;0.30;0.30;;;;;;;7.00;63.10;100109.66;5043734;28;20179;-73
2021/09/17 15:43:29;;;;;;;0.30;0.30;;;;;;;6.88;63.23;100110.59;5027714;28;20079;-71
2021/09/17 15:45:55;;;;;;;0.30;0.30;;;;;;;6.87;63.35;100119.63;5060131;28;20567;-72
2021/09/17 15:48:21;;;;;;;0.30;0.30;;;;;;;6.70;64.05;100117.38;5073857;28;20597;-70